sensor_id;sensor_type;location;lat;lon;timestamp;temperature;humidity
20182;DHT22;10250;50.756;6.172;2023-12-07T00:01:06;3.60;99.90
20182;DHT22;10250;50.756;6.172;2023-12-07T00:03:07;3.60;99.90
20182;DHT22;10250;50.756;6.172;2023-12-07T00:05:07;3.60;99.90
20182;DHT22;10250;50.756;6.172;2023-12-07T00:07:08;3.60;99.90
20182;DHT22;10250;50.756;6.172;2023-12-07T00:09:09;3.50;99.90
20182;DHT22;10250;50.756;6.172;2023-12-07T00:11:09;3.50;99.90
20182;DHT22;10250;50.756;6.172;2023-12-07T00:13:10;3.50;99.90
20182;DHT22;10250;50.756;6.172;2023-12-07T00:15:11;3.50;99.90
20182;DHT22;10250;50.756;6.172;2023-12-07T00:17:12;3.50;99.90
20182;DHT22;10250;50.756;6.172;2023-12-07T00:19:12;3.50;99.90
20182;DHT22;10250;50.756;6.172;2023-12-07T00:21:13;3.50;99.90
20182;DHT22;10250;50.756;6.172;2023-12-07T00:23:14;3.60;99.90
20182;DHT22;10250;50.756;6.172;2023-12-07T00:25:14;3.50;99.90
20182;DHT22;10250;50.756;6.172;2023-12-07T00:27:16;3.40;99.90
20182;DHT22;10250;50.756;6.172;2023-12-07T00:29:16;3.50;99.90
20182;DHT22;10250;50.756;6.172;2023-12-07T00:31:17;3.40;99.90
20182;DHT22;10250;50.756;6.172;2023-12-07T00:33:17;3.40;99.90
20182;DHT22;10250;50.756;6.172;2023-12-07T00:35:18;3.40;99.90
20182;DHT22;10250;50.756;6.172;2023-12-07T00:37:22;3.30;99.90
20182;DHT22;10250;50.756;6.172;2023-12-07T00:39:22;3.30;99.90
20182;DHT22;10250;50.756;6.172;2023-12-07T00:41:23;3.30;99.90
20182;DHT22;10250;50.756;6.172;2023-12-07T00:43:24;3.30;99.90
20182;DHT22;10250;50.756;6.172;2023-12-07T00:45:24;3.20;99.90
20182;DHT22;10250;50.756;6.172;2023-12-07T00:47:25;3.20;99.90
20182;DHT22;10250;50.756;6.172;2023-12-07T00:49:25;3.20;99.90
20182;DHT22;10250;50.756;6.172;2023-12-07T00:51:26;3.20;99.90
20182;DHT22;10250;50.756;6.172;2023-12-07T00:53:26;3.20;99.90
20182;DHT22;10250;50.756;6.172;2023-12-07T00:55:27;3.20;99.90
20182;DHT22;10250;50.756;6.172;2023-12-07T00:57:27;3.20;99.90
20182;DHT22;10250;50.756;6.172;2023-12-07T00:59:28;3.10;99.90
20182;DHT22;10250;50.756;6.172;2023-12-07T01:01:34;3.10;99.90
20182;DHT22;10250;50.756;6.172;2023-12-07T01:03:34;3.10;99.90
20182;DHT22;10250;50.756;6.172;2023-12-07T01:05:35;3.10;99.90
20182;DHT22;10250;50.756;6.172;2023-12-07T01:07:35;3.10;99.90
20182;DHT22;10250;50.756;6.172;2023-12-07T01:09:36;3.00;99.90
20182;DHT22;10250;50.756;6.172;2023-12-07T01:11:36;3.10;99.90
20182;DHT22;10250;50.756;6.172;2023-12-07T01:13:37;3.00;99.90
20182;DHT22;10250;50.756;6.172;2023-12-07T01:15:37;3.00;99.90
20182;DHT22;10250;50.756;6.172;2023-12-07T01:17:38;3.00;99.90
20182;DHT22;10250;50.756;6.172;2023-12-07T01:19:38;3.00;99.90
20182;DHT22;10250;50.756;6.172;2023-12-07T01:21:39;3.00;99.90
20182;DHT22;10250;50.756;6.172;2023-12-07T01:23:40;3.00;99.90
20182;DHT22;10250;50.756;6.172;2023-12-07T01:25:41;3.00;99.90
20182;DHT22;10250;50.756;6.172;2023-12-07T01:27:41;3.00;99.90
20182;DHT22;10250;50.756;6.172;2023-12-07T01:29:44;3.00;99.90
20182;DHT22;10250;50.756;6.172;2023-12-07T01:31:45;3.00;99.90
20182;DHT22;10250;50.756;6.172;2023-12-07T01:33:45;3.00;99.90
20182;DHT22;10250;50.756;6.172;2023-12-07T01:35:46;3.00;99.90
20182;DHT22;10250;50.756;6.172;2023-12-07T01:37:46;3.00;99.90
20182;DHT22;10250;50.756;6.172;2023-12-07T01:39:47;2.90;99.90
20182;DHT22;10250;50.756;6.172;2023-12-07T01:41:48;2.90;99.90
20182;DHT22;10250;50.756;6.172;2023-12-07T01:43:48;2.90;99.90
20182;DHT22;10250;50.756;6.172;2023-12-07T01:45:51;2.90;99.90
20182;DHT22;10250;50.756;6.172;2023-12-07T01:47:56;2.90;99.90
20182;DHT22;10250;50.756;6.172;2023-12-07T01:49:59;2.90;99.90
20182;DHT22;10250;50.756;6.172;2023-12-07T01:52:00;2.90;99.90
20182;DHT22;10250;50.756;6.172;2023-12-07T01:54:01;2.80;99.90
20182;DHT22;10250;50.756;6.172;2023-12-07T01:56:02;2.80;99.90
20182;DHT22;10250;50.756;6.172;2023-12-07T01:58:04;2.70;99.90
20182;DHT22;10250;50.756;6.172;2023-12-07T02:00:05;2.80;99.90
20182;DHT22;10250;50.756;6.172;2023-12-07T02:02:06;2.80;99.90
20182;DHT22;10250;50.756;6.172;2023-12-07T02:04:07;2.80;99.90
20182;DHT22;10250;50.756;6.172;2023-12-07T02:06:08;2.80;99.90
20182;DHT22;10250;50.756;6.172;2023-12-07T02:08:09;2.80;99.90
20182;DHT22;10250;50.756;6.172;2023-12-07T02:10:10;2.90;99.90
20182;DHT22;10250;50.756;6.172;2023-12-07T02:12:11;2.80;99.90
20182;DHT22;10250;50.756;6.172;2023-12-07T02:14:12;2.80;99.90
20182;DHT22;10250;50.756;6.172;2023-12-07T02:16:23;2.80;99.90
20182;DHT22;10250;50.756;6.172;2023-12-07T02:18:29;2.90;99.90
20182;DHT22;10250;50.756;6.172;2023-12-07T02:20:42;2.80;99.90
20182;DHT22;10250;50.756;6.172;2023-12-07T02:22:56;2.80;99.90
20182;DHT22;10250;50.756;6.172;2023-12-07T02:25:08;2.70;99.90
20182;DHT22;10250;50.756;6.172;2023-12-07T02:27:09;2.80;99.90
20182;DHT22;10250;50.756;6.172;2023-12-07T02:29:10;2.80;99.90
20182;DHT22;10250;50.756;6.172;2023-12-07T02:31:10;2.80;99.90
20182;DHT22;10250;50.756;6.172;2023-12-07T02:33:11;2.80;99.90
20182;DHT22;10250;50.756;6.172;2023-12-07T02:35:12;2.80;99.90
20182;DHT22;10250;50.756;6.172;2023-12-07T02:37:13;2.80;99.90
20182;DHT22;10250;50.756;6.172;2023-12-07T02:39:14;2.80;99.90
20182;DHT22;10250;50.756;6.172;2023-12-07T02:41:15;2.70;99.90
20182;DHT22;10250;50.756;6.172;2023-12-07T02:43:17;2.70;99.90
20182;DHT22;10250;50.756;6.172;2023-12-07T02:45:17;2.70;99.90
20182;DHT22;10250;50.756;6.172;2023-12-07T02:47:18;2.60;99.90
20182;DHT22;10250;50.756;6.172;2023-12-07T02:49:19;2.60;99.90
20182;DHT22;10250;50.756;6.172;2023-12-07T02:51:19;2.60;99.90
20182;DHT22;10250;50.756;6.172;2023-12-07T02:53:20;2.60;99.90
20182;DHT22;10250;50.756;6.172;2023-12-07T02:55:21;2.60;99.90
20182;DHT22;10250;50.756;6.172;2023-12-07T02:57:21;2.50;99.90
20182;DHT22;10250;50.756;6.172;2023-12-07T02:59:22;2.60;99.90
20182;DHT22;10250;50.756;6.172;2023-12-07T03:01:22;2.50;99.90
20182;DHT22;10250;50.756;6.172;2023-12-07T03:03:23;2.60;99.90
20182;DHT22;10250;50.756;6.172;2023-12-07T03:05:23;2.60;99.90
20182;DHT22;10250;50.756;6.172;2023-12-07T03:07:24;2.50;99.90
20182;DHT22;10250;50.756;6.172;2023-12-07T03:09:25;2.50;99.90
20182;DHT22;10250;50.756;6.172;2023-12-07T03:11:25;2.50;99.90
20182;DHT22;10250;50.756;6.172;2023-12-07T03:13:26;2.50;99.90
20182;DHT22;10250;50.756;6.172;2023-12-07T03:15:26;2.40;99.90
20182;DHT22;10250;50.756;6.172;2023-12-07T03:17:27;2.40;99.90
20182;DHT22;10250;50.756;6.172;2023-12-07T03:19:28;2.50;99.90
20182;DHT22;10250;50.756;6.172;2023-12-07T03:21:28;2.50;99.90
20182;DHT22;10250;50.756;6.172;2023-12-07T03:23:29;2.50;99.90
20182;DHT22;10250;50.756;6.172;2023-12-07T03:25:30;2.50;99.90
20182;DHT22;10250;50.756;6.172;2023-12-07T03:27:30;2.50;99.90
20182;DHT22;10250;50.756;6.172;2023-12-07T03:29:32;2.50;99.90
20182;DHT22;10250;50.756;6.172;2023-12-07T03:31:32;2.40;99.90
20182;DHT22;10250;50.756;6.172;2023-12-07T03:33:33;2.50;99.90
20182;DHT22;10250;50.756;6.172;2023-12-07T03:35:33;2.50;99.90
20182;DHT22;10250;50.756;6.172;2023-12-07T03:37:34;2.40;99.90
20182;DHT22;10250;50.756;6.172;2023-12-07T03:39:35;2.50;99.90
20182;DHT22;10250;50.756;6.172;2023-12-07T03:41:35;2.40;99.90
20182;DHT22;10250;50.756;6.172;2023-12-07T03:43:36;2.40;99.90
20182;DHT22;10250;50.756;6.172;2023-12-07T03:45:36;2.40;99.90
20182;DHT22;10250;50.756;6.172;2023-12-07T03:47:37;2.40;99.90
20182;DHT22;10250;50.756;6.172;2023-12-07T03:49:37;2.40;99.90
20182;DHT22;10250;50.756;6.172;2023-12-07T03:51:39;2.40;99.90
20182;DHT22;10250;50.756;6.172;2023-12-07T03:53:39;2.40;99.90
20182;DHT22;10250;50.756;6.172;2023-12-07T03:55:40;2.30;99.90
20182;DHT22;10250;50.756;6.172;2023-12-07T03:57:40;2.30;99.90
20182;DHT22;10250;50.756;6.172;2023-12-07T03:59:41;2.40;99.90
20182;DHT22;10250;50.756;6.172;2023-12-07T04:01:41;2.40;99.90
20182;DHT22;10250;50.756;6.172;2023-12-07T04:03:42;2.40;99.90
20182;DHT22;10250;50.756;6.172;2023-12-07T04:05:43;2.40;99.90
20182;DHT22;10250;50.756;6.172;2023-12-07T04:07:43;2.40;99.90
20182;DHT22;10250;50.756;6.172;2023-12-07T04:09:44;2.40;99.90
20182;DHT22;10250;50.756;6.172;2023-12-07T04:11:45;2.40;99.90
20182;DHT22;10250;50.756;6.172;2023-12-07T04:13:47;2.30;99.90
20182;DHT22;10250;50.756;6.172;2023-12-07T04:15:47;2.40;99.90
20182;DHT22;10250;50.756;6.172;2023-12-07T04:17:48;2.30;99.90
20182;DHT22;10250;50.756;6.172;2023-12-07T04:19:49;2.30;99.90
20182;DHT22;10250;50.756;6.172;2023-12-07T04:21:49;2.20;99.90
20182;DHT22;10250;50.756;6.172;2023-12-07T04:23:50;2.20;99.90
20182;DHT22;10250;50.756;6.172;2023-12-07T04:25:50;2.20;99.90
20182;DHT22;10250;50.756;6.172;2023-12-07T04:27:51;2.20;99.90
20182;DHT22;10250;50.756;6.172;2023-12-07T04:29:51;2.10;99.90
20182;DHT22;10250;50.756;6.172;2023-12-07T04:31:52;2.10;99.90
20182;DHT22;10250;50.756;6.172;2023-12-07T04:33:52;2.20;99.90
20182;DHT22;10250;50.756;6.172;2023-12-07T04:35:53;2.20;99.90
20182;DHT22;10250;50.756;6.172;2023-12-07T04:37:54;2.20;99.90
20182;DHT22;10250;50.756;6.172;2023-12-07T04:39:55;2.20;99.90
20182;DHT22;10250;50.756;6.172;2023-12-07T04:41:55;2.10;99.90
20182;DHT22;10250;50.756;6.172;2023-12-07T04:43:56;2.20;99.90
20182;DHT22;10250;50.756;6.172;2023-12-07T04:45:56;2.20;99.90
20182;DHT22;10250;50.756;6.172;2023-12-07T04:47:57;2.10;99.90
20182;DHT22;10250;50.756;6.172;2023-12-07T04:49:58;2.20;99.90
20182;DHT22;10250;50.756;6.172;2023-12-07T04:51:58;2.20;99.90
20182;DHT22;10250;50.756;6.172;2023-12-07T04:53:59;2.20;99.90
20182;DHT22;10250;50.756;6.172;2023-12-07T04:55:59;2.20;99.90
20182;DHT22;10250;50.756;6.172;2023-12-07T04:58:03;2.20;99.90
20182;DHT22;10250;50.756;6.172;2023-12-07T05:00:04;2.20;99.90
20182;DHT22;10250;50.756;6.172;2023-12-07T05:02:09;2.10;99.90
20182;DHT22;10250;50.756;6.172;2023-12-07T05:04:10;2.10;99.90
20182;DHT22;10250;50.756;6.172;2023-12-07T05:06:10;2.20;99.90
20182;DHT22;10250;50.756;6.172;2023-12-07T05:08:12;2.10;99.90
20182;DHT22;10250;50.756;6.172;2023-12-07T05:10:12;2.10;99.90
20182;DHT22;10250;50.756;6.172;2023-12-07T05:12:13;2.10;99.90
20182;DHT22;10250;50.756;6.172;2023-12-07T05:14:13;2.10;99.90
20182;DHT22;10250;50.756;6.172;2023-12-07T05:16:14;2.20;99.90
20182;DHT22;10250;50.756;6.172;2023-12-07T05:18:15;2.10;99.90
20182;DHT22;10250;50.756;6.172;2023-12-07T05:20:16;2.00;99.90
20182;DHT22;10250;50.756;6.172;2023-12-07T05:22:16;2.10;99.90
20182;DHT22;10250;50.756;6.172;2023-12-07T05:24:17;2.00;99.90
20182;DHT22;10250;50.756;6.172;2023-12-07T05:26:18;2.00;99.90
20182;DHT22;10250;50.756;6.172;2023-12-07T05:28:19;2.00;99.90
20182;DHT22;10250;50.756;6.172;2023-12-07T05:30:19;2.00;99.90
20182;DHT22;10250;50.756;6.172;2023-12-07T05:32:20;2.00;99.90
20182;DHT22;10250;50.756;6.172;2023-12-07T05:34:21;1.90;99.90
20182;DHT22;10250;50.756;6.172;2023-12-07T05:36:21;1.90;99.90
20182;DHT22;10250;50.756;6.172;2023-12-07T05:38:22;1.90;99.90
20182;DHT22;10250;50.756;6.172;2023-12-07T05:40:22;1.90;99.90
20182;DHT22;10250;50.756;6.172;2023-12-07T05:42:23;1.90;99.90
20182;DHT22;10250;50.756;6.172;2023-12-07T05:44:24;1.80;99.90
20182;DHT22;10250;50.756;6.172;2023-12-07T05:46:25;1.90;99.90
20182;DHT22;10250;50.756;6.172;2023-12-07T05:48:25;2.00;99.90
20182;DHT22;10250;50.756;6.172;2023-12-07T05:50:26;2.00;99.90
20182;DHT22;10250;50.756;6.172;2023-12-07T05:52:27;2.00;99.90
20182;DHT22;10250;50.756;6.172;2023-12-07T05:54:27;2.10;99.90
20182;DHT22;10250;50.756;6.172;2023-12-07T05:56:28;2.00;99.90
20182;DHT22;10250;50.756;6.172;2023-12-07T05:58:28;2.00;99.90
20182;DHT22;10250;50.756;6.172;2023-12-07T06:00:30;1.90;99.90
20182;DHT22;10250;50.756;6.172;2023-12-07T06:02:30;1.80;99.90
20182;DHT22;10250;50.756;6.172;2023-12-07T06:04:31;1.80;99.90
20182;DHT22;10250;50.756;6.172;2023-12-07T06:06:32;1.90;99.90
20182;DHT22;10250;50.756;6.172;2023-12-07T06:08:32;1.90;99.90
20182;DHT22;10250;50.756;6.172;2023-12-07T06:10:33;1.80;99.90
20182;DHT22;10250;50.756;6.172;2023-12-07T06:12:34;1.80;99.90
20182;DHT22;10250;50.756;6.172;2023-12-07T06:14:34;1.80;99.90
20182;DHT22;10250;50.756;6.172;2023-12-07T06:16:35;1.80;99.90
20182;DHT22;10250;50.756;6.172;2023-12-07T06:18:35;1.80;99.90
20182;DHT22;10250;50.756;6.172;2023-12-07T06:20:38;1.80;99.90
20182;DHT22;10250;50.756;6.172;2023-12-07T06:22:38;1.80;99.90
20182;DHT22;10250;50.756;6.172;2023-12-07T06:24:39;1.90;99.90
20182;DHT22;10250;50.756;6.172;2023-12-07T06:26:39;1.80;99.90
20182;DHT22;10250;50.756;6.172;2023-12-07T06:28:40;1.80;99.90
20182;DHT22;10250;50.756;6.172;2023-12-07T06:30:42;1.80;99.90
20182;DHT22;10250;50.756;6.172;2023-12-07T06:32:43;1.80;99.90
20182;DHT22;10250;50.756;6.172;2023-12-07T06:34:44;1.80;99.90
20182;DHT22;10250;50.756;6.172;2023-12-07T06:36:45;1.80;99.90
20182;DHT22;10250;50.756;6.172;2023-12-07T06:38:45;1.90;99.90
20182;DHT22;10250;50.756;6.172;2023-12-07T06:40:46;1.80;99.90
20182;DHT22;10250;50.756;6.172;2023-12-07T06:42:46;1.80;99.90
20182;DHT22;10250;50.756;6.172;2023-12-07T06:44:48;1.80;99.90
20182;DHT22;10250;50.756;6.172;2023-12-07T06:46:49;1.80;99.90
20182;DHT22;10250;50.756;6.172;2023-12-07T06:48:50;1.80;99.90
20182;DHT22;10250;50.756;6.172;2023-12-07T06:50:50;1.80;99.90
20182;DHT22;10250;50.756;6.172;2023-12-07T06:52:51;1.80;99.90
20182;DHT22;10250;50.756;6.172;2023-12-07T06:54:51;1.80;99.90
20182;DHT22;10250;50.756;6.172;2023-12-07T06:56:52;1.80;99.90
20182;DHT22;10250;50.756;6.172;2023-12-07T06:58:53;1.80;99.90
20182;DHT22;10250;50.756;6.172;2023-12-07T07:00:53;1.80;99.90
20182;DHT22;10250;50.756;6.172;2023-12-07T07:02:54;1.80;99.90
20182;DHT22;10250;50.756;6.172;2023-12-07T07:04:54;1.80;99.90
20182;DHT22;10250;50.756;6.172;2023-12-07T07:06:55;1.70;99.90
20182;DHT22;10250;50.756;6.172;2023-12-07T07:08:56;1.80;99.90
20182;DHT22;10250;50.756;6.172;2023-12-07T07:10:56;1.80;99.90
20182;DHT22;10250;50.756;6.172;2023-12-07T07:13:00;1.70;99.90
20182;DHT22;10250;50.756;6.172;2023-12-07T07:15:03;1.70;99.90
20182;DHT22;10250;50.756;6.172;2023-12-07T07:17:04;1.80;99.90
20182;DHT22;10250;50.756;6.172;2023-12-07T07:19:05;1.80;99.90
20182;DHT22;10250;50.756;6.172;2023-12-07T07:21:06;1.80;99.90
20182;DHT22;10250;50.756;6.172;2023-12-07T07:23:07;1.80;99.90
20182;DHT22;10250;50.756;6.172;2023-12-07T07:25:08;1.80;99.90
20182;DHT22;10250;50.756;6.172;2023-12-07T07:27:09;1.80;99.90
20182;DHT22;10250;50.756;6.172;2023-12-07T07:29:10;1.80;99.90
20182;DHT22;10250;50.756;6.172;2023-12-07T07:31:10;1.80;99.90
20182;DHT22;10250;50.756;6.172;2023-12-07T07:33:11;1.80;99.90
20182;DHT22;10250;50.756;6.172;2023-12-07T07:35:12;1.80;99.90
20182;DHT22;10250;50.756;6.172;2023-12-07T07:37:12;1.70;99.90
20182;DHT22;10250;50.756;6.172;2023-12-07T07:39:13;1.70;99.90
20182;DHT22;10250;50.756;6.172;2023-12-07T07:41:14;1.80;99.90
20182;DHT22;10250;50.756;6.172;2023-12-07T07:43:15;1.80;99.90
20182;DHT22;10250;50.756;6.172;2023-12-07T07:45:15;1.80;99.90
20182;DHT22;10250;50.756;6.172;2023-12-07T07:47:16;1.80;99.90
20182;DHT22;10250;50.756;6.172;2023-12-07T07:49:17;1.80;99.90
20182;DHT22;10250;50.756;6.172;2023-12-07T07:51:18;1.80;99.90
20182;DHT22;10250;50.756;6.172;2023-12-07T07:53:18;1.80;99.90
20182;DHT22;10250;50.756;6.172;2023-12-07T07:55:19;1.80;99.90
20182;DHT22;10250;50.756;6.172;2023-12-07T07:57:19;1.80;99.90
20182;DHT22;10250;50.756;6.172;2023-12-07T07:59:20;1.80;99.90
20182;DHT22;10250;50.756;6.172;2023-12-07T08:01:20;1.90;99.90
20182;DHT22;10250;50.756;6.172;2023-12-07T08:03:21;1.90;99.90
20182;DHT22;10250;50.756;6.172;2023-12-07T08:05:21;1.90;99.90
20182;DHT22;10250;50.756;6.172;2023-12-07T08:07:22;1.90;99.90
20182;DHT22;10250;50.756;6.172;2023-12-07T08:09:22;1.80;99.90
20182;DHT22;10250;50.756;6.172;2023-12-07T08:11:23;1.90;99.90
20182;DHT22;10250;50.756;6.172;2023-12-07T08:13:24;1.80;99.90
20182;DHT22;10250;50.756;6.172;2023-12-07T08:15:24;1.80;99.90
20182;DHT22;10250;50.756;6.172;2023-12-07T08:17:25;1.90;99.90
20182;DHT22;10250;50.756;6.172;2023-12-07T08:19:26;1.80;99.90
20182;DHT22;10250;50.756;6.172;2023-12-07T08:21:27;1.90;99.90
20182;DHT22;10250;50.756;6.172;2023-12-07T08:23:30;1.80;99.90
20182;DHT22;10250;50.756;6.172;2023-12-07T08:25:30;1.80;99.90
20182;DHT22;10250;50.756;6.172;2023-12-07T08:27:33;1.70;99.90
20182;DHT22;10250;50.756;6.172;2023-12-07T08:29:34;1.80;99.90
20182;DHT22;10250;50.756;6.172;2023-12-07T08:31:35;1.80;99.90
20182;DHT22;10250;50.756;6.172;2023-12-07T08:33:35;1.80;99.90
20182;DHT22;10250;50.756;6.172;2023-12-07T08:35:36;1.80;99.90
20182;DHT22;10250;50.756;6.172;2023-12-07T08:37:37;1.60;99.90
20182;DHT22;10250;50.756;6.172;2023-12-07T08:39:39;1.60;99.90
20182;DHT22;10250;50.756;6.172;2023-12-07T08:41:40;1.70;99.90
20182;DHT22;10250;50.756;6.172;2023-12-07T08:43:40;1.70;99.90
20182;DHT22;10250;50.756;6.172;2023-12-07T08:45:41;1.70;99.90
20182;DHT22;10250;50.756;6.172;2023-12-07T08:47:41;1.80;99.90
20182;DHT22;10250;50.756;6.172;2023-12-07T08:49:42;1.70;99.90
20182;DHT22;10250;50.756;6.172;2023-12-07T08:51:43;1.90;99.90
20182;DHT22;10250;50.756;6.172;2023-12-07T08:53:44;1.80;99.90
20182;DHT22;10250;50.756;6.172;2023-12-07T08:55:45;1.90;99.90
20182;DHT22;10250;50.756;6.172;2023-12-07T08:57:46;1.90;99.90
20182;DHT22;10250;50.756;6.172;2023-12-07T08:59:46;1.90;99.90
20182;DHT22;10250;50.756;6.172;2023-12-07T09:01:47;2.00;99.90
20182;DHT22;10250;50.756;6.172;2023-12-07T09:03:48;1.90;99.90
20182;DHT22;10250;50.756;6.172;2023-12-07T09:05:48;1.90;99.90
20182;DHT22;10250;50.756;6.172;2023-12-07T09:07:49;2.00;99.90
20182;DHT22;10250;50.756;6.172;2023-12-07T09:09:50;2.00;99.90
20182;DHT22;10250;50.756;6.172;2023-12-07T09:11:50;2.10;99.90
20182;DHT22;10250;50.756;6.172;2023-12-07T09:13:51;2.20;99.90
20182;DHT22;10250;50.756;6.172;2023-12-07T09:15:52;2.20;99.90
20182;DHT22;10250;50.756;6.172;2023-12-07T09:17:54;2.20;99.90
20182;DHT22;10250;50.756;6.172;2023-12-07T09:19:59;2.20;99.90
20182;DHT22;10250;50.756;6.172;2023-12-07T09:22:01;2.20;99.90
20182;DHT22;10250;50.756;6.172;2023-12-07T09:24:02;2.20;99.90
20182;DHT22;10250;50.756;6.172;2023-12-07T09:26:03;2.30;99.90
20182;DHT22;10250;50.756;6.172;2023-12-07T09:28:04;2.20;99.90
20182;DHT22;10250;50.756;6.172;2023-12-07T09:30:08;2.30;99.90
20182;DHT22;10250;50.756;6.172;2023-12-07T09:32:11;2.40;99.90
20182;DHT22;10250;50.756;6.172;2023-12-07T09:34:11;2.40;99.90
20182;DHT22;10250;50.756;6.172;2023-12-07T09:36:17;2.50;99.90
20182;DHT22;10250;50.756;6.172;2023-12-07T09:38:24;2.50;99.90
20182;DHT22;10250;50.756;6.172;2023-12-07T09:40:25;2.50;99.90
20182;DHT22;10250;50.756;6.172;2023-12-07T09:42:26;2.50;99.90
20182;DHT22;10250;50.756;6.172;2023-12-07T09:44:27;2.60;99.90
20182;DHT22;10250;50.756;6.172;2023-12-07T09:46:29;2.60;99.90
20182;DHT22;10250;50.756;6.172;2023-12-07T09:48:30;2.60;99.90
20182;DHT22;10250;50.756;6.172;2023-12-07T09:50:31;2.60;99.90
20182;DHT22;10250;50.756;6.172;2023-12-07T09:52:32;2.60;99.90
20182;DHT22;10250;50.756;6.172;2023-12-07T09:54:33;2.70;99.90
20182;DHT22;10250;50.756;6.172;2023-12-07T09:56:35;2.70;99.90
20182;DHT22;10250;50.756;6.172;2023-12-07T09:58:36;2.80;99.90
20182;DHT22;10250;50.756;6.172;2023-12-07T10:00:36;2.80;99.90
20182;DHT22;10250;50.756;6.172;2023-12-07T10:02:37;2.80;99.90
20182;DHT22;10250;50.756;6.172;2023-12-07T10:04:39;2.90;99.90
20182;DHT22;10250;50.756;6.172;2023-12-07T10:06:43;2.90;99.90
20182;DHT22;10250;50.756;6.172;2023-12-07T10:08:50;2.90;99.90
20182;DHT22;10250;50.756;6.172;2023-12-07T10:11:08;2.90;99.90
20182;DHT22;10250;50.756;6.172;2023-12-07T10:13:12;3.00;99.90
20182;DHT22;10250;50.756;6.172;2023-12-07T10:15:14;3.00;99.90
20182;DHT22;10250;50.756;6.172;2023-12-07T10:17:15;3.10;99.90
20182;DHT22;10250;50.756;6.172;2023-12-07T10:19:17;3.10;99.90
20182;DHT22;10250;50.756;6.172;2023-12-07T10:21:33;3.20;99.90
20182;DHT22;10250;50.756;6.172;2023-12-07T10:23:34;3.30;99.90
20182;DHT22;10250;50.756;6.172;2023-12-07T10:25:40;3.30;99.90
20182;DHT22;10250;50.756;6.172;2023-12-07T10:27:44;3.40;99.90
20182;DHT22;10250;50.756;6.172;2023-12-07T10:29:44;3.40;99.90
20182;DHT22;10250;50.756;6.172;2023-12-07T10:31:45;3.40;99.90
20182;DHT22;10250;50.756;6.172;2023-12-07T10:33:49;3.50;99.90
20182;DHT22;10250;50.756;6.172;2023-12-07T10:35:49;3.50;99.90
20182;DHT22;10250;50.756;6.172;2023-12-07T10:37:50;3.50;99.90
20182;DHT22;10250;50.756;6.172;2023-12-07T10:39:51;3.50;99.90
20182;DHT22;10250;50.756;6.172;2023-12-07T10:41:52;3.50;99.90
20182;DHT22;10250;50.756;6.172;2023-12-07T10:44:01;3.60;99.90
20182;DHT22;10250;50.756;6.172;2023-12-07T10:46:04;3.50;99.90
20182;DHT22;10250;50.756;6.172;2023-12-07T10:48:07;3.50;99.90
20182;DHT22;10250;50.756;6.172;2023-12-07T10:50:10;3.60;99.90
20182;DHT22;10250;50.756;6.172;2023-12-07T10:52:16;3.60;99.90
20182;DHT22;10250;50.756;6.172;2023-12-07T10:54:22;3.60;99.90
20182;DHT22;10250;50.756;6.172;2023-12-07T10:56:39;3.70;99.90
20182;DHT22;10250;50.756;6.172;2023-12-07T10:58:43;3.70;99.90
20182;DHT22;10250;50.756;6.172;2023-12-07T11:00:45;3.80;99.90
20182;DHT22;10250;50.756;6.172;2023-12-07T11:02:47;3.80;99.90
20182;DHT22;10250;50.756;6.172;2023-12-07T11:04:48;3.80;99.90
20182;DHT22;10250;50.756;6.172;2023-12-07T11:06:50;3.90;99.90
20182;DHT22;10250;50.756;6.172;2023-12-07T11:08:57;3.80;99.90
20182;DHT22;10250;50.756;6.172;2023-12-07T11:11:06;3.90;99.90
20182;DHT22;10250;50.756;6.172;2023-12-07T11:13:22;3.90;99.90
20182;DHT22;10250;50.756;6.172;2023-12-07T11:15:24;3.90;99.90
20182;DHT22;10250;50.756;6.172;2023-12-07T11:17:26;3.90;99.90
20182;DHT22;10250;50.756;6.172;2023-12-07T11:21:34;4.00;99.90
20182;DHT22;10250;50.756;6.172;2023-12-07T11:23:34;4.00;99.90
20182;DHT22;10250;50.756;6.172;2023-12-07T11:25:37;4.00;99.90
20182;DHT22;10250;50.756;6.172;2023-12-07T11:27:38;4.00;99.90
20182;DHT22;10250;50.756;6.172;2023-12-07T11:29:38;4.00;99.90
20182;DHT22;10250;50.756;6.172;2023-12-07T11:31:40;4.10;99.90
20182;DHT22;10250;50.756;6.172;2023-12-07T11:33:41;4.00;99.90
20182;DHT22;10250;50.756;6.172;2023-12-07T11:38:04;4.00;99.90
20182;DHT22;10250;50.756;6.172;2023-12-07T11:40:07;4.00;99.90
20182;DHT22;10250;50.756;6.172;2023-12-07T11:42:17;4.00;99.90
20182;DHT22;10250;50.756;6.172;2023-12-07T11:44:18;4.10;99.90
20182;DHT22;10250;50.756;6.172;2023-12-07T11:46:19;4.10;99.90
20182;DHT22;10250;50.756;6.172;2023-12-07T11:48:20;4.10;99.90
20182;DHT22;10250;50.756;6.172;2023-12-07T11:50:22;4.20;99.90
20182;DHT22;10250;50.756;6.172;2023-12-07T11:52:23;4.20;99.90
20182;DHT22;10250;50.756;6.172;2023-12-07T11:54:23;4.20;99.90
20182;DHT22;10250;50.756;6.172;2023-12-07T11:56:25;4.20;99.90
20182;DHT22;10250;50.756;6.172;2023-12-07T11:58:26;4.30;99.90
20182;DHT22;10250;50.756;6.172;2023-12-07T12:00:27;4.30;99.90
20182;DHT22;10250;50.756;6.172;2023-12-07T12:02:28;4.30;99.90
20182;DHT22;10250;50.756;6.172;2023-12-07T12:04:29;4.30;99.90
20182;DHT22;10250;50.756;6.172;2023-12-07T12:06:29;4.30;99.90
20182;DHT22;10250;50.756;6.172;2023-12-07T12:08:31;4.30;99.90
20182;DHT22;10250;50.756;6.172;2023-12-07T12:10:32;4.30;99.90
20182;DHT22;10250;50.756;6.172;2023-12-07T12:12:33;4.20;99.90
20182;DHT22;10250;50.756;6.172;2023-12-07T12:14:33;4.20;99.90
20182;DHT22;10250;50.756;6.172;2023-12-07T12:16:34;4.20;99.90
20182;DHT22;10250;50.756;6.172;2023-12-07T12:18:36;4.20;99.90
20182;DHT22;10250;50.756;6.172;2023-12-07T12:20:37;4.20;99.90
20182;DHT22;10250;50.756;6.172;2023-12-07T12:22:38;4.20;99.90
20182;DHT22;10250;50.756;6.172;2023-12-07T12:24:38;4.20;99.90
20182;DHT22;10250;50.756;6.172;2023-12-07T12:26:41;4.20;99.90
20182;DHT22;10250;50.756;6.172;2023-12-07T12:28:43;4.30;99.90
20182;DHT22;10250;50.756;6.172;2023-12-07T12:30:44;4.30;99.90
20182;DHT22;10250;50.756;6.172;2023-12-07T12:32:46;4.20;99.90
20182;DHT22;10250;50.756;6.172;2023-12-07T12:34:51;4.20;99.90
20182;DHT22;10250;50.756;6.172;2023-12-07T12:36:56;4.20;99.90
20182;DHT22;10250;50.756;6.172;2023-12-07T12:38:56;4.30;99.90
20182;DHT22;10250;50.756;6.172;2023-12-07T12:40:57;4.20;99.90
20182;DHT22;10250;50.756;6.172;2023-12-07T12:42:58;4.20;99.90
20182;DHT22;10250;50.756;6.172;2023-12-07T12:44:58;4.30;99.90
20182;DHT22;10250;50.756;6.172;2023-12-07T12:46:59;4.30;99.90
20182;DHT22;10250;50.756;6.172;2023-12-07T12:49:01;4.30;99.90
20182;DHT22;10250;50.756;6.172;2023-12-07T12:51:14;4.30;99.90
20182;DHT22;10250;50.756;6.172;2023-12-07T12:53:14;4.30;99.90
20182;DHT22;10250;50.756;6.172;2023-12-07T12:55:15;4.30;99.90
20182;DHT22;10250;50.756;6.172;2023-12-07T12:57:16;4.40;99.90
20182;DHT22;10250;50.756;6.172;2023-12-07T12:59:17;4.50;99.90
20182;DHT22;10250;50.756;6.172;2023-12-07T13:01:18;4.40;99.90
20182;DHT22;10250;50.756;6.172;2023-12-07T13:03:19;4.40;99.90